Terminal Aerodrome Forecast
Issued by NWS

Home | Current Version | Previous Version | Text Only | Print | Product List | Glossary On
Versions: 1 2 3 4 5 6 7 8 9 10 11
000
FTUS44 KEPZ 031700
TAFLRU
TAF
KLRU 031732Z 0318/0418 25007KT P6SM FEW100
     FM032000 24012G20KT P6SM BKN110
     FM040000 24010G18KT P6SM VCTS BKN100CB
     FM040400 27005KT P6SM SCT090=

USA.gov is the U.S. government's official web portal to all federal, state and local government web resources and services.